Latest Weather Observations for Sydney - Observatory Hill

IDN60901

Issued at 12:41 pm EST Tuesday 26 July 2016 (issued every 10 minutes, with the page automatically refreshed every 10 minutes)

About weather observations | Map of Sydney area stations | Latest observations for Sydney area | Other Formats
Station Details ID: 066062 Name: SYDNEY (OBSERVATORY HILL) Lat: -33.86 Lon: 151.21 Height: 39.0 m
Data from the previous 72 hours. | See also: Recent months at Sydney - Observatory Hill

* Apparent temperature (App Temp) for Sydney - Observatory Hill is calculated using temperature observations collected at Sydney - Observatory Hill and wind observations collected at Fort Denison, as wind observations are not currently provided for Sydney - Observatory Hill.

Date/Time
EST
Temp
°C
App
Temp
°C
Dew
Point
°C
Rel
Hum
%
Delta-T
°C
Wind Press
QNH
hPa
Press
MSL
hPa
Rain since
9am
mm
Dir  Spd
km/h
Gust
km/h
Spd
kts
Gust
kts
26/12:30pm 17.2 14.7 3.8 41 6.3 E 6 - 3 - 1013.8 1013.8 0.0
26/12:00pm 16.2 13.7 3.6 43 5.8 SSE 6 - 3 - 1014.3 1014.3 0.0
26/11:30am 15.8 14.0 3.3 43 5.7 W 2 - 1 - 1014.7 1014.7 0.0
26/11:00am 15.3 13.5 3.5 45 5.4 N 2 - 1 - 1014.9 1015.0 0.0
26/10:30am 14.5 12.1 4.2 50 4.7 E 6 - 3 - 1015.0 1015.1 0.0
26/10:00am 13.9 11.5 4.2 52 4.4 ENE 6 - 3 - 1015.2 1015.3 0.0
26/09:30am 13.6 11.0 3.4 50 4.6 NNW 6 - 3 - 1015.0 1015.1 0.0
26/09:00am 14.0 11.6 4.3 52 4.5 N 6 - 3 - 1014.7 1014.7 0.0
26/08:30am 13.7 11.0 3.8 51 4.5 NE 7 - 4 - 1014.5 1014.5 0.0
26/08:00am 12.0 9.2 2.2 51 4.2 NNE 6 - 3 - 1014.4 1014.4 0.0
26/07:30am 11.4 8.6 2.2 53 3.9 SW 6 - 3 - 1014.1 1014.1 0.0
26/07:00am 10.7 8.3 2.0 55 3.7 NW 4 - 2 - 1013.6 1013.6 0.0
26/06:30am 11.3 8.0 2.3 54 3.9 NNE 9 - 5 - 1013.1 1013.1 0.0
26/06:00am 11.1 8.1 1.9 53 3.9 NE 7 - 4 - 1012.9 1012.9 0.0
26/05:30am 11.0 7.6 1.8 53 3.9 N 9 - 5 - 1012.6 1012.6 0.0
26/05:00am 11.1 7.3 1.6 52 4.0 N 11 - 6 - 1012.1 1012.1 0.0
26/04:30am 11.0 7.6 1.8 53 3.9 N 9 - 5 - 1012.0 1012.0 0.0
26/04:00am 11.3 7.6 2.1 53 3.9 N 11 - 6 - 1012.1 1012.1 0.0
26/03:30am 10.8 7.4 1.9 54 3.8 NNW 9 - 5 - 1012.1 1012.1 0.0
26/03:00am 10.5 6.3 1.6 54 3.7 NNW 13 - 7 - 1012.5 1012.5 0.0
26/02:30am 11.0 6.0 1.5 52 4.0 NNW 17 - 9 - 1012.6 1012.6 0.0
26/02:00am 10.7 5.8 1.8 54 3.8 NNW 17 - 9 - 1012.6 1012.6 0.0
26/01:30am 10.5 6.3 1.9 55 3.6 N 13 - 7 - 1012.7 1012.7 0.0
26/01:00am 10.4 6.2 1.5 54 3.7 N 13 - 7 - 1012.7 1012.7 0.0
26/12:30am 10.4 6.3 2.0 56 3.6 N 13 - 7 - 1012.5 1012.5 0.0
26/12:00am 10.8 5.9 2.1 55 3.7 NW 17 - 9 - 1013.0 1013.0 0.0
 
Date/Time
EST
Temp
°C
App
Temp
°C
Dew
Point
°C
Rel
Hum
%
Delta-T
°C
Wind Press
QNH
hPa
Press
MSL
hPa
Rain since
9am
mm
Dir  Spd
km/h
Gust
km/h
Spd
kts
Gust
kts
25/11:30pm 10.9 5.7 2.5 56 3.6 NW 19 - 10 - 1013.2 1013.2 0.0
25/11:00pm 11.0 5.6 2.3 55 3.7 NW 20 - 11 - 1013.2 1013.2 0.0
25/10:30pm 11.3 6.0 2.9 56 3.7 WNW 20 - 11 - 1013.3 1013.3 0.0
25/10:00pm 11.5 5.4 2.8 55 3.8 NW 24 - 13 - 1013.2 1013.2 0.0
25/09:30pm 11.5 5.7 2.5 54 3.9 NNW 22 - 12 - 1013.3 1013.3 0.0
25/09:00pm 11.7 6.3 2.5 53 4.0 NNW 20 - 11 - 1013.3 1013.3 0.0
25/08:30pm 11.9 6.5 2.4 52 4.1 NNW 20 - 11 - 1013.2 1013.2 0.0
25/08:00pm 12.3 6.9 2.5 51 4.3 NW 20 - 11 - 1013.2 1013.2 0.0
25/07:30pm 12.4 7.0 2.3 50 4.4 NW 20 - 11 - 1013.2 1013.2 0.0
25/07:00pm 12.9 6.7 1.9 47 4.8 WNW 24 - 13 - 1013.1 1013.1 0.0
25/06:30pm 13.6 7.7 1.9 45 5.1 WNW 22 - 12 - 1013.0 1013.0 0.0
25/06:00pm 14.3 5.9 1.6 42 5.5 WNW 35 - 19 - 1012.4 1012.4 0.0
25/05:30pm 14.5 8.9 1.4 41 5.7 NW 20 - 11 - 1011.8 1011.8 0.0
25/05:00pm 15.0 9.0 0.8 38 6.1 WNW 22 - 12 - 1011.8 1011.8 0.0
25/04:30pm 15.7 8.0 -0.1 34 6.7 WNW 30 - 16 - 1011.6 1011.6 0.0
25/04:00pm 16.1 10.6 0.3 34 6.8 W 19 - 10 - 1011.5 1011.5 0.0
25/03:30pm 16.8 9.1 -0.4 31 7.3 WNW 30 - 16 - 1011.4 1011.4 0.0
25/03:00pm 17.1 10.5 -0.1 31 7.4 WNW 24 - 13 - 1011.3 1011.3 0.0
25/02:30pm 17.3 10.7 -0.4 30 7.6 WNW 24 - 13 - 1011.3 1011.3 0.0
25/02:00pm 17.4 10.8 -0.3 30 7.6 WNW 24 - 13 - 1011.3 1011.3 0.0
25/01:30pm 17.6 12.1 0.3 31 7.5 WNW 19 - 10 - 1011.5 1011.5 0.0
25/01:00pm 17.4 10.9 0.6 32 7.4 W 24 - 13 - 1011.6 1011.6 0.0
25/12:30pm 16.5 10.9 -0.2 32 7.1 W 19 - 10 - 1011.9 1011.9 0.0
25/12:00pm 15.4 8.8 -0.4 34 6.7 W 24 - 13 - 1011.9 1011.9 0.0
25/11:30am 15.2 8.0 0.6 37 6.3 W 28 - 15 - 1012.2 1012.2 0.0
25/11:00am 14.7 7.0 0.2 37 6.1 W 30 - 16 - 1012.4 1012.4 0.0
25/10:30am 14.2 7.2 1.8 43 5.4 WNW 28 - 15 - 1012.4 1012.4 0.0
25/10:00am 13.3 8.4 1.9 46 4.9 NW 17 - 9 - 1012.7 1012.7 0.0
25/09:30am 13.1 6.8 1.8 46 4.9 NW 24 - 13 - 1012.6 1012.6 0.0
25/09:00am 12.2 6.9 2.1 50 4.4 NNW 19 - 10 - 1012.7 1012.7 0.0
25/08:30am 12.5 7.6 1.8 48 4.6 NNW 17 - 9 - 1012.5 1012.5 0.0
25/08:00am 11.2 6.7 2.0 53 3.9 NW 15 - 8 - 1012.6 1012.6 0.0
25/07:30am 10.4 5.5 2.0 56 3.6 NW 17 - 9 - 1012.5 1012.5 0.0
25/07:00am 9.0 4.8 1.9 61 3.0 NW 13 - 7 - 1012.1 1012.1 0.0
25/06:30am 8.6 4.3 1.3 60 3.0 NW 13 - 7 - 1011.6 1011.6 0.0
25/06:00am 9.4 5.2 1.8 59 3.2 NW 13 - 7 - 1011.4 1011.4 0.0
25/05:30am 9.5 5.9 2.8 63 2.9 WNW 11 - 6 - 1011.3 1011.3 0.0
25/05:00am 9.4 5.5 3.4 66 2.6 WNW 13 - 7 - 1010.9 1010.9 0.0
25/04:30am 9.6 5.1 4.0 68 2.5 W 17 - 9 - 1010.6 1010.6 0.0
25/04:00am 9.6 4.6 4.4 70 2.3 NW 20 - 11 - 1010.2 1010.2 0.0
25/03:30am 9.7 4.2 4.1 68 2.5 NNW 22 - 12 - 1010.1 1010.1 0.0
25/03:00am 9.7 6.4 4.3 69 2.4 NW 11 - 6 - 1010.2 1010.2 0.0
25/02:30am 9.5 4.9 3.7 67 2.5 NNW 17 - 9 - 1010.4 1010.4 0.0
25/02:00am 9.7 3.7 3.2 64 2.8 NNW 24 - 13 - 1010.7 1010.7 0.0
25/01:30am 9.7 2.9 3.0 63 2.9 NNW 28 - 15 - 1011.1 1011.1 0.0
25/01:00am 9.6 4.2 2.7 62 2.9 NW 20 - 11 - 1011.3 1011.3 0.0
25/12:30am 9.7 2.4 2.3 60 3.1 NNW 30 - 16 - 1011.4 1011.4 0.0
25/12:00am 9.6 2.6 1.8 58 3.3 NNW 28 - 15 - 1011.6 1011.6 0.0
 
Date/Time
EST
Temp
°C
App
Temp
°C
Dew
Point
°C
Rel
Hum
%
Delta-T
°C
Wind Press
QNH
hPa
Press
MSL
hPa
Rain since
9am
mm
Dir  Spd
km/h
Gust
km/h
Spd
kts
Gust
kts
24/11:30pm 9.6 4.1 1.8 58 3.3 NNW 20 - 11 - 1011.9 1011.9 0.0
24/11:00pm 9.5 4.0 1.9 59 3.2 NNW 20 - 11 - 1012.3 1012.3 0.0
24/10:30pm 8.9 2.9 1.3 59 3.1 NNW 22 - 12 - 1012.5 1012.5 0.0
24/10:00pm 9.0 3.0 1.0 57 3.3 NNW 22 - 12 - 1012.7 1012.7 0.0
24/09:30pm 9.5 3.1 0.9 55 3.5 NNW 24 - 13 - 1012.9 1012.9 0.0
24/09:00pm 10.2 4.7 0.5 51 4.0 NNW 19 - 10 - 1012.8 1012.8 0.0
24/08:30pm 10.0 4.5 0.3 51 3.9 NNW 19 - 10 - 1013.1 1013.1 0.0
24/08:00pm 10.2 3.8 0.8 52 3.9 NNW 24 - 13 - 1013.4 1013.4 0.0
24/07:30pm 10.3 4.7 0.9 52 3.9 NNW 20 - 11 - 1013.2 1013.2 0.0
24/07:00pm 10.6 6.2 0.1 48 4.3 NNW 13 - 7 - 1013.2 1013.2 0.0
24/06:30pm 10.5 5.7 0.3 49 4.2 NNW 15 - 8 - 1012.9 1012.9 0.0
24/06:00pm 10.4 5.2 0.4 50 4.1 NNW 17 - 9 - 1012.7 1012.7 0.0
24/05:30pm 10.7 5.5 0.4 49 4.2 NNW 17 - 9 - 1012.3 1012.3 0.0
24/05:00pm 11.3 6.1 -0.2 45 4.7 NNW 17 - 9 - 1011.9 1011.9 0.0
24/04:30pm 12.0 6.8 -0.2 43 5.0 NNW 17 - 9 - 1011.7 1011.7 0.0
24/04:00pm 12.6 7.0 -0.3 41 5.3 NW 19 - 10 - 1012.1 1012.1 0.0
24/03:30pm 13.5 8.5 -0.9 37 5.9 NW 15 - 8 - 1012.1 1012.1 0.0
24/03:00pm 13.6 8.8 -0.1 39 5.7 NW 15 - 8 - 1012.1 1012.1 0.0
24/02:30pm 12.8 6.8 -1.5 37 5.7 WNW 20 - 11 - 1012.4 1012.4 0.0
24/02:00pm 12.6 6.0 -0.6 40 5.4 W 24 - 13 - 1012.7 1012.7 0.0
24/01:30pm 12.5 6.8 -0.7 40 5.4 WNW 19 - 10 - 1012.8 1012.8 0.0
24/01:00pm 11.8 5.9 -1.0 41 5.1 W 20 - 11 - 1013.5 1013.5 0.0
24/12:30pm 11.3 5.4 -0.8 43 4.8 W 20 - 11 - 1013.7 1013.7 0.0
24/12:00pm 10.7 4.3 -1.4 43 4.7 WNW 22 - 12 - 1014.6 1014.6 0.0
24/11:30am 10.4 3.7 -1.3 44 4.6 W 24 - 13 - 1015.7 1015.8 0.0
24/11:00am 10.2 3.5 -0.9 46 4.4 W 24 - 13 - 1015.7 1015.8 0.0
24/10:30am 9.8 3.5 -1.0 47 4.2 W 22 - 12 - 1015.8 1015.9 0.0
24/10:00am 9.6 2.9 -0.9 48 4.1 W 24 - 13 - 1015.9 1016.0 0.0
24/09:30am 9.2 2.6 -0.7 50 3.9 W 24 - 13 - 1016.0 1016.1 0.0
24/09:00am 8.7 2.4 -1.1 50 3.8 W 22 - 12 - 1015.7 1015.8 0.0
24/08:30am 8.4 1.8 -0.6 53 3.5 W 24 - 13 - 1015.7 1015.8 0.0
24/08:00am 8.1 1.8 -1.1 52 3.5 W 22 - 12 - 1015.1 1015.2 0.0
24/07:30am 8.1 1.9 -0.4 55 3.3 W 22 - 12 - 1015.0 1015.1 0.0
24/07:00am 7.9 2.0 -1.1 53 3.4 W 20 - 11 - 1014.7 1014.7 0.0
24/06:30am 8.1 1.4 -0.9 53 3.5 W 24 - 13 - 1014.5 1014.5 0.0
24/06:00am 8.1 1.3 -1.7 50 3.7 WNW 24 - 13 - 1015.1 1015.2 0.0
24/05:30am 8.1 1.4 -1.1 52 3.5 WNW 24 - 13 - 1014.8 1014.8 0.0
24/05:00am 8.6 2.5 -2.3 46 4.1 W 20 - 11 - 1014.4 1014.4 0.0
24/04:30am 8.9 2.0 -3.0 43 4.4 W 24 - 13 - 1014.2 1014.2 0.0
24/04:00am 9.2 2.6 -3.3 41 4.6 W 22 - 12 - 1014.4 1014.4 0.0
24/03:30am 9.4 2.4 -3.5 40 4.7 W 24 - 13 - 1014.2 1014.2 0.0
24/03:00am 9.6 1.1 -3.7 39 4.9 W 32 - 17 - 1014.0 1014.0 0.0
24/02:30am 9.8 2.4 -3.8 38 5.0 W 26 - 14 - 1013.9 1013.9 0.0
24/02:00am 9.1 4.2 -3.1 42 4.5 WSW 13 - 7 - 1014.6 1014.6 0.0
24/01:30am 9.4 5.8 -3.5 40 4.7 SW 6 - 3 - 1014.6 1014.6 0.0
24/01:00am 9.9 4.2 -3.7 38 5.0 SSW 17 - 9 - 1014.2 1014.2 0.0
24/12:30am 10.1 5.5 -4.3 36 5.2 SW 11 - 6 - 1014.2 1014.2 0.0
24/12:00am 10.5 5.5 -4.3 35 5.4 SW 13 - 7 - 1013.8 1013.8 0.0
 
Date/Time
EST
Temp
°C
App
Temp
°C
Dew
Point
°C
Rel
Hum
%
Delta-T
°C
Wind Press
QNH
hPa
Press
MSL
hPa
Rain since
9am
mm
Dir  Spd
km/h
Gust
km/h
Spd
kts
Gust
kts
23/11:30pm 10.6 4.5 -3.8 36 5.3 SW 19 - 10 - 1013.6 1013.6 0.0
23/11:00pm 10.7 6.7 -2.0 41 4.9 WSW 9 - 5 - 1013.2 1013.2 0.0
23/10:30pm 11.0 7.6 -1.7 41 5.0 SW 6 - 3 - 1012.9 1012.9 0.0
23/10:00pm 11.4 7.1 -1.7 40 5.1 SW 11 - 6 - 1012.5 1012.5 0.0
23/09:30pm 11.6 6.5 -1.9 39 5.3 SW 15 - 8 - 1011.7 1011.7 0.0
23/09:00pm 11.9 7.6 -1.6 39 5.3 SW 11 - 6 - 1011.2 1011.2 0.0
23/08:30pm 12.0 7.8 -1.2 40 5.3 SW 11 - 6 - 1011.1 1011.1 0.0
23/08:00pm 12.5 7.1 -1.4 38 5.6 SW 17 - 9 - 1010.6 1010.6 0.0
23/07:30pm 12.8 8.2 -0.8 39 5.5 WSW 13 - 7 - 1010.0 1010.0 0.0
23/07:00pm 13.2 7.2 -1.5 36 5.9 WSW 20 - 11 - 1009.2 1009.2 0.0
23/06:30pm 13.7 7.9 -1.5 35 6.1 NW 19 - 10 - 1008.6 1008.6 0.0
23/06:00pm 14.3 8.3 -1.3 34 6.4 W 20 - 11 - 1007.8 1007.8 0.0
23/05:30pm 14.5 8.1 -1.6 33 6.5 W 22 - 12 - 1007.2 1007.2 0.0
23/05:00pm 15.1 6.8 -1.9 31 6.9 W 32 - 17 - 1006.8 1006.8 0.0
23/04:30pm 15.5 7.2 -1.5 31 7.0 WNW 32 - 17 - 1006.1 1006.1 0.0
23/04:00pm 16.1 7.0 -0.6 32 7.1 WNW 37 - 20 - 1005.2 1005.2 0.0
23/03:30pm 16.8 7.3 -0.9 30 7.5 W 39 - 21 - 1004.4 1004.4 0.0
23/03:00pm 17.0 6.8 -0.2 31 7.4 W 43 - 23 - 1003.8 1003.8 0.0
23/02:30pm 17.1 6.4 0.3 32 7.3 W 46 - 25 - 1003.4 1003.4 0.0
23/02:00pm 17.1 7.9 1.1 34 7.1 WNW 39 - 21 - 1003.4 1003.4 0.0
23/01:30pm 17.2 10.1 1.6 35 7.0 WNW 28 - 15 - 1003.6 1003.6 0.0
23/01:00pm 16.8 7.1 0.5 33 7.1 W 41 - 22 - 1003.4 1003.4 0.0

Latest Capital City Observations: Canberra | Sydney | Melbourne | Brisbane | Adelaide | Perth | Hobart | Darwin

Other Formats:

Comma delimited format used in spreadsheet applications
http://www.bom.gov.au/fwo/IDN60901/IDN60901.94768.axf

JavaScript Object Notation format (JSON) in row-major order
http://www.bom.gov.au/fwo/IDN60901/IDN60901.94768.json